createdAt,value
2022-12-29T00:02:27.578Z,1.60
2022-12-29T00:04:55.499Z,1.58
2022-12-29T00:07:23.356Z,2.05
2022-12-29T00:09:51.264Z,1.77
2022-12-29T00:12:19.097Z,1.38
2022-12-29T00:15:04.489Z,1.85
2022-12-29T00:17:33.744Z,2.03
2022-12-29T00:20:18.796Z,1.83
2022-12-29T00:23:03.976Z,1.65
2022-12-29T00:25:49.162Z,1.40
2022-12-29T00:28:34.603Z,1.52
2022-12-29T00:31:20.759Z,1.58
2022-12-29T00:34:07.301Z,1.63
2022-12-29T00:36:40.692Z,1.70
2022-12-29T00:39:26.075Z,1.47
2022-12-29T00:42:08.146Z,1.40
2022-12-29T00:44:36.177Z,1.88
2022-12-29T00:47:05.390Z,1.65
2022-12-29T00:49:34.356Z,1.27
2022-12-29T00:52:05.402Z,1.67
2022-12-29T00:54:35.343Z,1.35
2022-12-29T00:57:04.029Z,1.60
2022-12-29T00:59:32.803Z,1.38
2022-12-29T01:02:00.718Z,1.40
2022-12-29T01:04:29.952Z,1.38
2022-12-29T01:06:59.199Z,1.13
2022-12-29T01:09:44.514Z,1.27
2022-12-29T01:12:13.521Z,1.60
2022-12-29T01:14:42.801Z,1.50
2022-12-29T01:17:10.923Z,1.40
2022-12-29T01:19:40.120Z,1.55
2022-12-29T01:22:09.396Z,1.55
2022-12-29T01:24:37.548Z,1.20
2022-12-29T01:27:05.521Z,1.45
2022-12-29T01:29:33.513Z,1.40
2022-12-29T01:32:01.483Z,1.30
2022-12-29T01:34:29.788Z,1.35
2022-12-29T01:36:57.801Z,1.38
2022-12-29T01:39:27.439Z,1.27
2022-12-29T01:41:55.319Z,1.20
2022-12-29T01:44:57.350Z,1.38
2022-12-29T01:47:31.029Z,1.50
2022-12-29T01:50:02.811Z,1.15
2022-12-29T01:52:34.129Z,1.60
2022-12-29T01:55:06.979Z,1.40
2022-12-29T01:57:38.895Z,1.35
2022-12-29T02:00:10.294Z,1.30
2022-12-29T02:02:42.494Z,1.42
2022-12-29T02:05:16.161Z,1.48
2022-12-29T02:07:48.749Z,1.20
2022-12-29T02:10:18.153Z,1.52
2022-12-29T02:12:48.707Z,1.98
2022-12-29T02:15:17.679Z,1.40
2022-12-29T02:18:03.974Z,1.20
2022-12-29T02:21:00.193Z,1.33
2022-12-29T02:23:57.374Z,1.23
2022-12-29T02:26:45.808Z,1.50
2022-12-29T02:29:38.702Z,1.50
2022-12-29T02:32:15.566Z,1.85
2022-12-29T02:34:54.567Z,1.27
2022-12-29T02:37:28.184Z,1.42
2022-12-29T02:42:37.701Z,1.17
2022-12-29T02:45:10.831Z,1.20
2022-12-29T02:47:44.392Z,1.15
2022-12-29T02:50:18.841Z,1.40
2022-12-29T02:52:51.217Z,1.33
2022-12-29T02:55:18.285Z,1.30
2022-12-29T02:57:46.347Z,1.30
2022-12-29T03:00:18.077Z,1.23
2022-12-29T03:03:07.622Z,1.30
2022-12-29T03:06:01.489Z,1.33
2022-12-29T03:11:05.394Z,0.95
2022-12-29T03:13:59.088Z,1.27
2022-12-29T03:16:37.324Z,1.48
2022-12-29T03:19:12.820Z,1.13
2022-12-29T03:22:03.595Z,1.05
2022-12-29T03:24:41.785Z,1.20
2022-12-29T03:27:12.818Z,1.47
2022-12-29T03:29:53.285Z,1.38
2022-12-29T03:32:24.780Z,1.42
2022-12-29T03:34:57.441Z,1.30
2022-12-29T03:37:30.989Z,1.10
2022-12-29T03:40:00.364Z,1.25
2022-12-29T03:42:32.565Z,1.25
2022-12-29T03:45:00.546Z,0.93
2022-12-29T03:47:29.840Z,1.20
2022-12-29T03:49:59.241Z,1.20
2022-12-29T03:52:27.235Z,1.30
2022-12-29T03:54:56.150Z,1.45
2022-12-29T03:57:24.040Z,1.08
2022-12-29T03:59:59.139Z,1.50
2022-12-29T04:02:27.227Z,1.02
2022-12-29T04:04:58.950Z,1.27
2022-12-29T04:07:26.836Z,1.27
2022-12-29T04:09:56.626Z,1.30
2022-12-29T04:12:27.582Z,1.38
2022-12-29T04:14:55.493Z,0.98
2022-12-29T04:17:24.039Z,1.15
2022-12-29T04:20:14.417Z,1.27
2022-12-29T04:22:43.686Z,1.25
2022-12-29T04:25:12.325Z,1.35
2022-12-29T04:27:40.441Z,1.30
2022-12-29T04:30:26.576Z,1.15
2022-12-29T04:33:05.345Z,1.08
2022-12-29T04:35:33.292Z,1.13
2022-12-29T04:38:04.243Z,1.30
2022-12-29T04:40:32.405Z,1.30
2022-12-29T04:43:00.324Z,1.25
2022-12-29T04:45:28.745Z,1.30
2022-12-29T04:48:02.184Z,1.30
2022-12-29T04:51:05.860Z,1.40
2022-12-29T04:53:40.644Z,1.40
2022-12-29T04:56:10.149Z,1.08
2022-12-29T04:58:38.621Z,1.30
2022-12-29T05:01:07.069Z,1.20
2022-12-29T05:03:35.940Z,1.30
2022-12-29T05:06:03.948Z,1.23
2022-12-29T05:08:31.895Z,1.27
2022-12-29T05:11:04.913Z,1.50
2022-12-29T05:13:32.803Z,1.08
2022-12-29T05:16:04.152Z,1.42
2022-12-29T05:18:32.206Z,1.40
2022-12-29T05:21:00.836Z,1.10
2022-12-29T05:23:29.658Z,1.52
2022-12-29T05:26:05.441Z,1.08
2022-12-29T05:28:58.148Z,1.15
2022-12-29T05:31:26.094Z,1.10
2022-12-29T05:33:54.404Z,1.35
2022-12-29T05:36:22.943Z,1.45
2022-12-29T05:38:55.087Z,1.33
2022-12-29T05:41:24.520Z,1.10
2022-12-29T05:44:08.743Z,1.20
2022-12-29T05:47:05.274Z,1.00
2022-12-29T05:49:47.806Z,1.00
2022-12-29T05:52:30.628Z,1.00
2022-12-29T05:54:58.845Z,1.35
2022-12-29T05:57:29.791Z,1.30
2022-12-29T06:00:09.726Z,1.20
2022-12-29T06:02:42.821Z,1.10
2022-12-29T06:05:11.565Z,1.15
2022-12-29T06:07:40.900Z,1.10
2022-12-29T06:10:10.052Z,1.45
2022-12-29T06:12:47.142Z,1.38
2022-12-29T06:15:16.710Z,1.27
2022-12-29T06:17:45.838Z,1.40
2022-12-29T06:20:13.813Z,1.30
2022-12-29T06:22:42.514Z,1.35
2022-12-29T06:25:11.067Z,1.08
2022-12-29T06:27:40.378Z,1.40
2022-12-29T06:30:11.355Z,1.13
2022-12-29T06:32:40.944Z,1.30
2022-12-29T06:35:11.848Z,1.08
2022-12-29T06:37:44.493Z,1.27
2022-12-29T06:40:13.764Z,1.10
2022-12-29T06:43:01.253Z,1.10
2022-12-29T06:45:50.529Z,0.90
2022-12-29T06:48:18.565Z,1.10
2022-12-29T06:50:46.392Z,1.10
2022-12-29T06:53:14.275Z,1.20
2022-12-29T06:55:43.612Z,1.00
2022-12-29T06:58:11.523Z,1.13
2022-12-29T07:00:39.437Z,0.80
2022-12-29T07:03:08.677Z,1.48
2022-12-29T07:05:36.586Z,1.10
2022-12-29T07:08:04.480Z,1.40
2022-12-29T07:10:32.344Z,0.93
2022-12-29T07:13:00.379Z,1.00
2022-12-29T07:15:28.297Z,1.13
2022-12-29T07:17:56.226Z,1.27
2022-12-29T07:20:27.212Z,1.00
2022-12-29T07:22:55.622Z,1.10
2022-12-29T07:25:23.542Z,1.38
2022-12-29T07:27:51.561Z,0.80
2022-12-29T07:30:19.582Z,1.13
2022-12-29T07:32:47.545Z,1.10
2022-12-29T07:35:15.606Z,1.10
2022-12-29T07:37:44.884Z,1.10
2022-12-29T07:40:13.778Z,1.00
2022-12-29T07:42:42.073Z,1.02
2022-12-29T07:45:11.625Z,1.08
2022-12-29T07:48:09.427Z,1.13
2022-12-29T07:50:37.611Z,1.20
2022-12-29T07:53:06.905Z,1.20
2022-12-29T07:55:34.856Z,0.90
2022-12-29T07:58:02.775Z,0.98
2022-12-29T08:00:30.711Z,1.13
2022-12-29T08:03:00.014Z,1.23
2022-12-29T08:05:27.909Z,1.00
2022-12-29T08:07:55.831Z,1.20
2022-12-29T08:10:25.099Z,1.05
2022-12-29T08:12:53.746Z,0.90
2022-12-29T08:15:24.416Z,1.20
2022-12-29T08:20:23.153Z,0.93
2022-12-29T08:22:52.803Z,1.30
2022-12-29T08:25:21.551Z,1.00
2022-12-29T08:27:50.861Z,1.23
2022-12-29T08:30:19.031Z,1.10
2022-12-29T08:32:47.122Z,0.95
2022-12-29T08:35:15.108Z,0.90
2022-12-29T08:37:43.085Z,1.00
2022-12-29T08:40:11.865Z,1.40
2022-12-29T08:42:39.804Z,1.10
2022-12-29T08:45:10.732Z,0.90
2022-12-29T08:47:38.913Z,1.13
2022-12-29T08:50:07.869Z,1.08
2022-12-29T08:52:35.775Z,1.00
2022-12-29T08:55:03.699Z,1.02
2022-12-29T08:57:31.916Z,1.00
2022-12-29T09:00:18.876Z,1.00
2022-12-29T09:02:47.520Z,0.88
2022-12-29T09:05:15.702Z,1.05
2022-12-29T09:07:43.926Z,1.00
2022-12-29T09:10:11.875Z,1.00
2022-12-29T09:12:39.750Z,1.00
2022-12-29T09:15:09.269Z,1.08
2022-12-29T09:17:45.556Z,1.10
2022-12-29T09:20:14.630Z,1.00
2022-12-29T09:22:43.142Z,1.35
2022-12-29T09:25:11.762Z,0.98
2022-12-29T09:27:39.681Z,1.00
2022-12-29T09:30:11.585Z,1.13
2022-12-29T09:32:45.124Z,1.20
2022-12-29T09:35:13.935Z,1.27
2022-12-29T09:37:41.855Z,1.60
2022-12-29T09:40:23.459Z,1.10
2022-12-29T09:43:12.721Z,1.30
2022-12-29T09:45:45.746Z,1.30
2022-12-29T09:48:20.096Z,1.00
2022-12-29T09:50:52.644Z,1.00
2022-12-29T09:53:24.672Z,1.00
2022-12-29T09:55:55.579Z,1.02
2022-12-29T09:58:27.321Z,1.00
2022-12-29T10:01:00.508Z,1.00
2022-12-29T10:03:41.374Z,1.10
2022-12-29T10:06:14.118Z,0.82
2022-12-29T10:08:46.784Z,1.08
2022-12-29T10:11:26.114Z,1.27
2022-12-29T10:14:15.806Z,0.80
2022-12-29T10:16:55.099Z,1.13
2022-12-29T10:19:46.109Z,0.93
2022-12-29T10:22:23.755Z,1.20
2022-12-29T10:24:57.099Z,1.20
2022-12-29T10:27:26.297Z,0.90
2022-12-29T10:29:58.020Z,1.17
2022-12-29T10:32:35.206Z,1.30
2022-12-29T10:35:13.961Z,1.20
2022-12-29T10:37:48.260Z,0.90
2022-12-29T10:40:23.982Z,0.95
2022-12-29T10:42:55.410Z,0.90
2022-12-29T10:45:26.368Z,1.00
2022-12-29T10:47:59.606Z,1.15
2022-12-29T10:50:30.451Z,1.08
2022-12-29T10:53:02.240Z,0.80
2022-12-29T10:55:34.379Z,1.10
2022-12-29T10:58:05.970Z,1.05
2022-12-29T11:00:34.842Z,0.88
2022-12-29T11:03:36.088Z,1.10
2022-12-29T11:06:11.128Z,1.00
2022-12-29T11:08:42.037Z,0.75
2022-12-29T11:11:11.704Z,1.02
2022-12-29T11:13:50.095Z,0.95
2022-12-29T11:16:29.720Z,0.85
2022-12-29T11:18:57.693Z,1.08
2022-12-29T11:21:34.753Z,1.00
2022-12-29T11:24:04.744Z,1.10
2022-12-29T11:26:35.004Z,1.00
2022-12-29T11:29:25.819Z,1.00
2022-12-29T11:31:56.192Z,1.02
2022-12-29T11:34:26.529Z,0.75
2022-12-29T11:37:03.199Z,1.02
2022-12-29T11:39:42.016Z,1.23
2022-12-29T11:42:17.323Z,0.90
2022-12-29T11:44:47.893Z,1.02
2022-12-29T11:47:27.573Z,1.00
2022-12-29T11:49:59.294Z,0.85
2022-12-29T11:52:34.105Z,0.80
2022-12-29T11:55:03.656Z,0.50
2022-12-29T11:57:35.384Z,0.73
2022-12-29T12:00:04.879Z,1.00
2022-12-29T12:02:44.621Z,1.33
2022-12-29T12:05:28.025Z,0.45
2022-12-29T12:08:04.404Z,0.60
2022-12-29T12:10:39.569Z,0.60
2022-12-29T12:13:16.588Z,0.80
2022-12-29T12:15:52.851Z,0.50
2022-12-29T12:18:34.561Z,0.93
2022-12-29T12:21:10.791Z,0.50
2022-12-29T12:23:48.102Z,0.45
2022-12-29T12:26:19.818Z,0.40
2022-12-29T12:28:56.246Z,0.40
2022-12-29T12:31:43.494Z,0.75
2022-12-29T12:34:17.987Z,0.52
2022-12-29T12:37:12.416Z,0.88
2022-12-29T12:39:58.284Z,0.60
2022-12-29T12:42:45.012Z,0.77
2022-12-29T12:45:40.998Z,0.80
2022-12-29T12:48:26.050Z,0.55
2022-12-29T12:51:00.575Z,0.50
2022-12-29T12:53:41.933Z,0.60
2022-12-29T12:56:34.910Z,0.60
2022-12-29T12:59:11.546Z,0.80
2022-12-29T13:01:49.006Z,0.73
2022-12-29T13:05:05.557Z,0.68
2022-12-29T13:07:46.826Z,0.90
2022-12-29T13:10:24.411Z,0.63
2022-12-29T13:13:03.226Z,0.90
2022-12-29T13:15:44.826Z,0.90
2022-12-29T13:18:26.343Z,0.63
2022-12-29T13:21:01.523Z,1.50
2022-12-29T13:23:36.857Z,0.90
2022-12-29T13:26:14.025Z,1.00
2022-12-29T13:28:51.941Z,1.00
2022-12-29T13:31:28.712Z,1.00
2022-12-29T13:34:03.187Z,0.80
2022-12-29T13:36:36.991Z,0.70
2022-12-29T13:39:16.209Z,0.93
2022-12-29T13:44:24.578Z,0.85
2022-12-29T13:46:53.898Z,1.10
2022-12-29T13:49:25.426Z,0.80
2022-12-29T13:51:56.172Z,0.98
2022-12-29T13:54:33.470Z,0.90
2022-12-29T13:57:11.547Z,1.15
2022-12-29T13:59:51.041Z,1.30
2022-12-29T14:02:33.055Z,1.27
2022-12-29T14:05:03.672Z,1.20
2022-12-29T14:07:37.731Z,1.23
2022-12-29T14:10:06.669Z,1.25
2022-12-29T14:12:40.080Z,1.05
2022-12-29T14:17:45.965Z,0.63
2022-12-29T14:20:21.977Z,0.95
2022-12-29T14:23:02.264Z,1.20
2022-12-29T14:25:59.227Z,1.00
2022-12-29T14:28:28.694Z,1.05
2022-12-29T14:30:59.331Z,1.08
2022-12-29T14:33:29.970Z,1.40
2022-12-29T14:35:57.983Z,1.30
2022-12-29T14:38:29.312Z,1.40
2022-12-29T14:41:21.094Z,1.33
2022-12-29T14:44:03.179Z,1.50
2022-12-29T14:46:49.034Z,1.70
2022-12-29T14:49:21.374Z,1.40
2022-12-29T14:51:50.554Z,1.50
2022-12-29T14:54:46.058Z,1.50
2022-12-29T14:57:24.265Z,1.20
2022-12-29T14:59:57.949Z,1.20
2022-12-29T15:02:34.528Z,1.35
2022-12-29T15:05:04.492Z,2.38
2022-12-29T15:07:33.603Z,2.22
2022-12-29T15:10:08.380Z,1.73
2022-12-29T15:12:41.106Z,1.80
2022-12-29T15:15:21.328Z,1.77
2022-12-29T15:17:50.622Z,1.60
2022-12-29T15:20:28.315Z,1.40
2022-12-29T15:22:59.611Z,1.20
2022-12-29T15:25:28.250Z,1.70
2022-12-29T15:27:59.547Z,1.13
2022-12-29T15:30:27.490Z,0.90
2022-12-29T15:32:56.875Z,1.20
2022-12-29T15:35:29.345Z,0.77
2022-12-29T15:37:58.153Z,1.10
2022-12-29T15:40:27.995Z,1.20
2022-12-29T15:43:09.878Z,1.25
2022-12-29T15:45:38.160Z,1.20
2022-12-29T15:48:16.645Z,1.77
2022-12-29T15:50:45.154Z,1.67
2022-12-29T15:53:14.998Z,1.33
2022-12-29T15:55:45.168Z,1.40
2022-12-29T15:58:22.164Z,1.48
2022-12-29T16:00:53.992Z,1.50
2022-12-29T16:03:25.340Z,1.60
2022-12-29T16:05:56.441Z,1.50
2022-12-29T16:08:33.473Z,2.10
2022-12-29T16:11:03.680Z,1.80
2022-12-29T16:13:39.855Z,1.67
2022-12-29T16:16:15.692Z,1.40
2022-12-29T16:18:50.466Z,2.40
2022-12-29T16:21:25.360Z,2.10
2022-12-29T16:23:56.725Z,2.10
2022-12-29T16:26:26.154Z,1.50
2022-12-29T16:28:58.168Z,1.30
2022-12-29T16:31:30.611Z,1.20
2022-12-29T16:34:00.172Z,1.30
2022-12-29T16:36:31.389Z,1.63
2022-12-29T16:39:34.061Z,1.52
2022-12-29T16:42:02.546Z,1.48
2022-12-29T16:44:32.280Z,1.20
2022-12-29T16:47:22.431Z,1.70
2022-12-29T16:49:55.923Z,1.40
2022-12-29T16:52:29.426Z,1.40
2022-12-29T16:55:01.163Z,1.40
2022-12-29T16:57:32.410Z,1.23
2022-12-29T17:00:03.518Z,1.13
2022-12-29T17:02:34.522Z,1.13
2022-12-29T17:05:03.942Z,0.90
2022-12-29T17:07:32.396Z,0.90
2022-12-29T17:10:00.419Z,0.77
2022-12-29T17:12:31.296Z,1.05
2022-12-29T17:15:01.591Z,1.08
2022-12-29T17:17:34.650Z,1.15
2022-12-29T17:20:07.284Z,1.00
2022-12-29T17:22:35.296Z,1.00
2022-12-29T17:25:04.043Z,1.10
2022-12-29T17:27:35.737Z,1.25
2022-12-29T17:30:07.007Z,0.85
2022-12-29T17:32:35.255Z,0.85
2022-12-29T17:35:05.015Z,0.80
2022-12-29T17:37:38.524Z,1.08
2022-12-29T17:40:09.596Z,0.70
2022-12-29T17:42:43.054Z,1.15
2022-12-29T17:47:42.165Z,0.80
2022-12-29T17:50:14.266Z,1.15
2022-12-29T17:52:42.873Z,1.00
2022-12-29T17:55:17.521Z,1.02
2022-12-29T17:57:45.604Z,1.30
2022-12-29T18:00:17.981Z,0.93
2022-12-29T18:02:47.268Z,1.10
2022-12-29T18:05:21.360Z,0.98
2022-12-29T18:07:50.150Z,1.10
2022-12-29T18:10:18.183Z,1.48
2022-12-29T18:12:48.042Z,0.90
2022-12-29T18:15:21.828Z,1.17
2022-12-29T18:17:49.922Z,0.90
2022-12-29T18:20:19.139Z,1.50
2022-12-29T18:22:46.983Z,1.50
2022-12-29T18:25:23.504Z,1.40
2022-12-29T18:27:51.435Z,1.20
2022-12-29T18:30:19.607Z,1.42
2022-12-29T18:32:47.512Z,1.52
2022-12-29T18:35:24.402Z,1.60
2022-12-29T18:37:52.421Z,1.30
2022-12-29T18:40:20.657Z,1.55
2022-12-29T18:42:48.519Z,1.20
2022-12-29T18:45:21.897Z,1.25
2022-12-29T18:50:19.554Z,1.80
2022-12-29T18:52:47.716Z,1.38
2022-12-29T18:55:17.988Z,2.03
2022-12-29T18:57:45.945Z,1.70
2022-12-29T19:00:16.684Z,2.22
2022-12-29T19:02:45.288Z,1.85
2022-12-29T19:05:23.206Z,1.90
2022-12-29T19:07:51.851Z,2.10
2022-12-29T19:10:21.138Z,2.22
2022-12-29T19:12:49.090Z,2.20
2022-12-29T19:15:23.491Z,1.88
2022-12-29T19:18:16.061Z,2.10
2022-12-29T19:20:42.936Z,1.67
2022-12-29T19:23:13.059Z,1.83
2022-12-29T19:25:41.705Z,2.10
2022-12-29T19:28:16.912Z,2.10
2022-12-29T19:30:49.558Z,2.05
2022-12-29T19:33:20.449Z,2.20
2022-12-29T19:35:50.094Z,1.90
2022-12-29T19:38:18.020Z,2.28
2022-12-29T19:40:48.076Z,1.95
2022-12-29T19:43:16.425Z,1.85
2022-12-29T19:45:45.561Z,2.38
2022-12-29T19:48:14.968Z,2.15
2022-12-29T19:50:43.635Z,2.30
2022-12-29T19:53:13.752Z,2.25
2022-12-29T19:55:43.391Z,2.55
2022-12-29T19:58:11.390Z,2.72
2022-12-29T20:00:40.957Z,2.50
2022-12-29T20:03:09.288Z,2.45
2022-12-29T20:05:37.452Z,2.28
2022-12-29T20:08:05.539Z,2.25
2022-12-29T20:10:34.855Z,2.83
2022-12-29T20:13:04.459Z,2.20
2022-12-29T20:15:32.918Z,2.22
2022-12-29T20:18:16.015Z,2.03
2022-12-29T20:20:44.172Z,2.60
2022-12-29T20:23:12.145Z,1.80
2022-12-29T20:25:45.144Z,2.08
2022-12-29T20:28:14.288Z,2.03
2022-12-29T20:30:42.206Z,1.33
2022-12-29T20:33:10.205Z,1.63
2022-12-29T20:35:43.438Z,2.15
2022-12-29T20:40:45.878Z,1.45
2022-12-29T20:43:17.521Z,3.30
2022-12-29T20:45:46.040Z,2.90
2022-12-29T20:48:13.959Z,3.70
2022-12-29T20:50:42.013Z,2.83
2022-12-29T20:53:09.955Z,2.00
2022-12-29T20:55:40.908Z,1.50
2022-12-29T20:58:25.414Z,2.85
2022-12-29T21:00:55.603Z,2.13
2022-12-29T21:03:24.638Z,2.13
2022-12-29T21:05:53.639Z,1.88
2022-12-29T21:08:22.176Z,1.60
2022-12-29T21:10:50.942Z,1.80
2022-12-29T21:13:18.842Z,1.90
2022-12-29T21:15:47.101Z,1.45
2022-12-29T21:18:16.441Z,1.48
2022-12-29T21:20:44.295Z,1.23
2022-12-29T21:23:12.273Z,1.95
2022-12-29T21:25:45.157Z,1.80
2022-12-29T21:28:13.169Z,1.55
2022-12-29T21:30:41.791Z,1.48
2022-12-29T21:33:10.176Z,2.20
2022-12-29T21:35:40.032Z,1.50
2022-12-29T21:38:08.616Z,1.70
2022-12-29T21:40:38.450Z,1.45
2022-12-29T21:43:07.080Z,2.00
2022-12-29T21:45:34.577Z,1.60
2022-12-29T21:48:24.397Z,1.55
2022-12-29T21:51:12.072Z,1.60
2022-12-29T21:53:41.784Z,1.48
2022-12-29T21:56:12.746Z,1.20
2022-12-29T21:58:59.487Z,1.40
2022-12-29T22:01:46.395Z,1.58
2022-12-29T22:04:32.831Z,1.25
2022-12-29T22:07:19.714Z,2.53
2022-12-29T22:10:05.149Z,1.13
2022-12-29T22:12:51.453Z,1.48
2022-12-29T22:15:20.190Z,1.15
2022-12-29T22:17:49.697Z,1.50
2022-12-29T22:20:17.854Z,1.27
2022-12-29T22:22:47.336Z,1.05
2022-12-29T22:25:15.829Z,0.98
2022-12-29T22:27:44.178Z,1.15
2022-12-29T22:30:12.672Z,1.20
2022-12-29T22:32:41.149Z,1.13
2022-12-29T22:35:10.238Z,1.33
2022-12-29T22:37:40.274Z,1.23
2022-12-29T22:40:11.302Z,1.48
2022-12-29T22:42:39.993Z,1.42
2022-12-29T22:45:09.395Z,1.00
2022-12-29T22:47:37.668Z,1.10
2022-12-29T22:50:06.492Z,1.25
2022-12-29T22:52:34.436Z,1.13
2022-12-29T22:55:06.793Z,1.67
2022-12-29T22:57:37.041Z,1.00
2022-12-29T23:00:08.095Z,1.70
2022-12-29T23:02:36.632Z,1.52
2022-12-29T23:05:06.115Z,1.40
2022-12-29T23:07:35.434Z,1.85
2022-12-29T23:10:03.664Z,1.20
2022-12-29T23:12:32.690Z,1.13
2022-12-29T23:15:01.919Z,1.23
2022-12-29T23:17:30.008Z,1.00
2022-12-29T23:19:57.879Z,0.98
2022-12-29T23:22:25.766Z,1.17
2022-12-29T23:24:53.623Z,1.40
2022-12-29T23:27:21.936Z,1.20
2022-12-29T23:29:50.718Z,1.40
2022-12-29T23:32:20.231Z,1.15
2022-12-29T23:34:48.454Z,1.63
2022-12-29T23:37:16.552Z,1.33
2022-12-29T23:39:44.460Z,1.25
2022-12-29T23:42:12.413Z,1.23
2022-12-29T23:44:40.654Z,1.38
2022-12-29T23:47:08.853Z,1.20
2022-12-29T23:49:38.213Z,1.00
2022-12-29T23:52:06.183Z,1.10
2022-12-29T23:54:34.165Z,1.27
2022-12-29T23:57:02.422Z,1.13
2022-12-29T23:59:30.439Z,1.00
